Time;durP1;ratioP1;P1;durP2;ratioP2;P2;SDS_P1;SDS_P2;PMS_P1;PMS_P2;Temp;Humidity;BMP_temperature;BMP_pressure;BME280_temperature;BME280_humidity;BME280_pressure;Samples;Min_cycle;Max_cycle;Signal;HPM_P1;HPM_P2
2022/11/06 00:00:53;;;;;;;131.87;11.50;;;3.30;99.90;;;;;;5058783;28;20949;-59
2022/11/06 00:03:19;;;;;;;32.13;8.63;;;3.30;99.90;;;;;;5082926;28;20178;-59
2022/11/06 00:08:32;;;;;;;15.80;8.60;;;3.20;99.90;;;;;;5082903;28;20215;-59
2022/11/06 00:10:58;;;;;;;35.83;9.07;;;3.20;99.90;;;;;;5088147;28;21135;-59
2022/11/06 00:13:24;;;;;;;65.53;9.23;;;3.30;99.90;;;;;;5060170;28;20427;-59
2022/11/06 00:15:50;;;;;;;12.57;7.20;;;3.20;99.90;;;;;;5087270;28;20446;-59
2022/11/06 00:18:15;;;;;;;14.83;7.33;;;3.20;99.90;;;;;;5074017;28;20186;-59
2022/11/06 00:20:41;;;;;;;32.67;7.77;;;3.20;99.90;;;;;;5083772;28;20606;-59
2022/11/06 00:23:06;;;;;;;17.03;7.60;;;3.20;99.90;;;;;;5071950;28;20179;-59
2022/11/06 00:25:32;;;;;;;14.77;7.00;;;3.20;99.90;;;;;;5084213;28;20863;-59
2022/11/06 00:27:58;;;;;;;21.60;7.10;;;3.20;99.90;;;;;;5084463;28;20177;-59
2022/11/06 00:30:24;;;;;;;12.00;6.73;;;3.20;99.90;;;;;;5086566;28;20170;-59
2022/11/06 00:32:49;;;;;;;56.90;8.33;;;3.20;99.90;;;;;;5078591;28;20582;-59
2022/11/06 00:35:15;;;;;;;18.90;6.70;;;3.20;99.90;;;;;;5085072;28;20459;-59
2022/11/06 00:37:41;;;;;;;12.80;7.37;;;3.10;99.90;;;;;;5089325;28;20175;-60
2022/11/06 00:40:07;;;;;;;15.30;6.43;;;3.10;99.90;;;;;;5077578;28;20173;-59
2022/11/06 00:42:33;;;;;;;18.87;7.10;;;3.10;99.90;;;;;;5077292;28;20181;-59
2022/11/06 00:44:58;;;;;;;11.60;7.07;;;3.10;99.90;;;;;;5082271;28;22358;-59
2022/11/06 00:47:24;;;;;;;48.87;7.87;;;3.10;99.90;;;;;;5084919;28;20169;-59
2022/11/06 00:49:50;;;;;;;26.20;7.27;;;3.10;99.90;;;;;;5085054;28;20185;-59
2022/11/06 00:52:15;;;;;;;13.70;7.53;;;3.10;99.90;;;;;;5077414;28;20251;-59
2022/11/06 00:54:41;;;;;;;31.27;7.37;;;3.10;99.90;;;;;;5064110;28;20950;-59
2022/11/06 00:57:06;;;;;;;58.77;8.43;;;3.10;99.90;;;;;;5081653;28;20193;-59
2022/11/06 00:59:32;;;;;;;85.10;9.30;;;3.00;99.90;;;;;;5081777;28;20165;-59
2022/11/06 01:01:58;;;;;;;21.83;7.50;;;3.00;99.90;;;;;;5078741;28;20282;-59
2022/11/06 01:04:24;;;;;;;27.73;7.20;;;3.00;99.90;;;;;;5081912;28;20170;-59
2022/11/06 01:06:53;;;;;;;18.83;7.50;;;3.00;99.90;;;;;;5086598;28;20201;-60
2022/11/06 01:09:21;;;;;;;27.17;7.53;;;3.00;99.90;;;;;;5076503;28;20438;-58
2022/11/06 01:11:49;;;;;;;17.70;7.20;;;3.00;99.90;;;;;;5083692;28;20467;-58
2022/11/06 01:14:17;;;;;;;19.67;7.57;;;3.00;99.90;;;;;;5080959;28;20468;-59
2022/11/06 01:16:43;;;;;;;15.17;6.60;;;3.00;99.90;;;;;;5082736;28;20832;-60
2022/11/06 01:19:10;;;;;;;37.10;8.97;;;3.10;99.90;;;;;;5077225;28;20463;-59
2022/11/06 01:21:39;;;;;;;11.40;6.83;;;3.00;99.90;;;;;;5080429;28;20430;-59
2022/11/06 01:24:10;;;;;;;35.13;8.50;;;3.00;99.90;;;;;;5078828;28;20526;-59
2022/11/06 01:26:37;;;;;;;41.23;7.83;;;3.00;99.90;;;;;;5084436;28;20474;-59
2022/11/06 01:29:03;;;;;;;20.00;7.60;;;3.00;99.90;;;;;;5088232;28;20462;-60
2022/11/06 01:31:31;;;;;;;22.50;8.33;;;3.00;99.90;;;;;;5086217;28;20450;-59
2022/11/06 01:33:58;;;;;;;29.70;7.50;;;3.00;99.90;;;;;;5080895;28;20459;-59
2022/11/06 01:36:25;;;;;;;12.70;6.67;;;3.00;99.90;;;;;;5079659;28;20486;-59
2022/11/06 01:38:52;;;;;;;19.87;7.33;;;3.00;99.90;;;;;;5077207;28;20429;-59
2022/11/06 01:41:21;;;;;;;34.60;7.90;;;3.00;99.90;;;;;;5081090;28;21009;-59
2022/11/06 01:43:48;;;;;;;18.23;6.80;;;3.00;99.90;;;;;;5088425;28;20982;-59
2022/11/06 01:46:15;;;;;;;14.90;7.20;;;3.00;99.90;;;;;;5084835;28;20505;-59
2022/11/06 01:48:45;;;;;;;27.83;11.47;;;2.90;99.90;;;;;;5083120;28;20466;-59
2022/11/06 01:51:12;;;;;;;32.27;9.30;;;2.90;99.90;;;;;;5071390;28;21172;-59
2022/11/06 01:53:37;;;;;;;27.63;7.63;;;2.90;99.90;;;;;;5081703;28;21228;-59
2022/11/06 01:56:06;;;;;;;22.53;6.57;;;2.90;99.90;;;;;;5083371;28;20447;-59
2022/11/06 01:58:33;;;;;;;16.47;7.47;;;2.90;99.90;;;;;;5079577;28;20170;-59
2022/11/06 02:00:59;;;;;;;21.67;7.63;;;2.90;99.90;;;;;;5081144;28;20927;-59
2022/11/06 02:03:24;;;;;;;36.50;7.30;;;2.90;99.90;;;;;;5069818;28;20968;-59
2022/11/06 02:05:50;;;;;;;42.27;8.07;;;3.00;99.90;;;;;;5089713;28;20467;-59
2022/11/06 02:08:18;;;;;;;20.73;7.00;;;3.00;99.90;;;;;;5082803;28;20281;-59
2022/11/06 02:10:44;;;;;;;50.87;8.30;;;3.00;99.90;;;;;;5079668;28;20959;-59
2022/11/06 02:13:18;;;;;;;23.47;6.90;;;3.00;99.90;;;;;;5086446;28;20456;-59
2022/11/06 02:16:37;;;;;;;38.87;8.20;;;3.00;99.90;;;;;;5089422;28;20438;-59
2022/11/06 02:19:40;;;;;;;28.03;9.03;;;3.00;99.90;;;;;;5048174;28;20521;-59
2022/11/06 02:22:18;;;;;;;57.50;8.17;;;3.00;99.90;;;;;;5066231;28;20423;-59
2022/11/06 02:25:13;;;;;;;62.40;8.70;;;2.90;99.90;;;;;;5060342;28;20432;-59
2022/11/06 02:27:44;;;;;;;33.00;9.13;;;2.90;99.90;;;;;;5069403;28;20886;-59
2022/11/06 02:30:15;;;;;;;31.13;7.27;;;2.90;99.90;;;;;;5083920;28;20435;-59
2022/11/06 02:32:47;;;;;;;17.97;6.57;;;2.90;99.90;;;;;;5082725;28;20472;-59
2022/11/06 02:35:25;;;;;;;12.57;6.67;;;2.90;99.90;;;;;;5082274;28;20437;-59
2022/11/06 02:37:55;;;;;;;29.20;7.60;;;2.90;99.90;;;;;;5080416;28;20833;-59
2022/11/06 02:40:23;;;;;;;17.27;7.10;;;2.90;99.90;;;;;;5083606;28;20413;-59
2022/11/06 02:42:51;;;;;;;21.80;7.83;;;2.90;99.90;;;;;;5084714;28;20440;-59
2022/11/06 02:45:18;;;;;;;20.00;6.80;;;3.00;99.90;;;;;;5080309;28;20481;-59
2022/11/06 02:47:47;;;;;;;23.67;8.03;;;3.00;99.90;;;;;;5077646;28;20424;-59
2022/11/06 02:50:24;;;;;;;20.17;7.23;;;3.00;99.90;;;;;;5087270;28;20900;-59
2022/11/06 02:52:56;;;;;;;13.37;6.90;;;3.00;99.90;;;;;;5059865;28;20442;-59
2022/11/06 02:55:34;;;;;;;17.53;6.90;;;3.00;99.90;;;;;;5079568;28;20836;-59
2022/11/06 02:58:08;;;;;;;28.77;6.60;;;3.10;99.90;;;;;;5084675;28;20455;-59
2022/11/06 03:00:34;;;;;;;37.37;8.07;;;3.10;99.90;;;;;;5078208;28;20943;-59
2022/11/06 03:03:19;;;;;;;19.63;8.33;;;3.10;99.90;;;;;;5082293;28;20435;-59
2022/11/06 03:05:52;;;;;;;18.53;6.33;;;3.10;99.90;;;;;;5083758;28;20451;-59
2022/11/06 03:08:30;;;;;;;19.30;7.87;;;3.10;99.90;;;;;;5069523;28;20435;-59
2022/11/06 03:11:23;;;;;;;32.37;7.47;;;3.20;99.90;;;;;;5086259;28;20491;-59
2022/11/06 03:13:49;;;;;;;25.47;7.50;;;3.20;99.90;;;;;;5068965;28;20530;-59
2022/11/06 03:16:34;;;;;;;15.07;7.10;;;3.20;99.90;;;;;;5086252;28;20527;-59
2022/11/06 03:19:05;;;;;;;27.10;7.50;;;3.30;99.90;;;;;;5061624;28;20185;-59
2022/11/06 03:21:36;;;;;;;26.70;7.80;;;3.30;99.90;;;;;;5084366;28;20818;-59
2022/11/06 03:24:14;;;;;;;27.57;7.50;;;3.30;99.90;;;;;;5086159;28;20430;-59
2022/11/06 03:26:46;;;;;;;38.53;8.10;;;3.30;99.90;;;;;;5078922;28;20825;-59
2022/11/06 03:29:39;;;;;;;19.90;7.20;;;3.30;99.90;;;;;;5080893;28;20448;-59
2022/11/06 03:32:09;;;;;;;12.10;5.83;;;3.30;99.90;;;;;;5053598;28;20463;-59
2022/11/06 03:34:41;;;;;;;23.40;7.73;;;3.30;99.90;;;;;;5082067;28;20427;-59
2022/11/06 03:37:20;;;;;;;15.13;6.07;;;3.30;99.90;;;;;;5080993;28;20487;-59
2022/11/06 03:39:52;;;;;;;21.90;5.80;;;3.30;99.90;;;;;;5076881;28;20504;-59
2022/11/06 03:42:24;;;;;;;35.57;6.50;;;3.30;99.90;;;;;;5083265;28;20527;-59
2022/11/06 03:44:56;;;;;;;33.53;6.40;;;3.30;99.90;;;;;;5081109;28;20447;-59
2022/11/06 03:47:28;;;;;;;32.03;6.50;;;3.30;99.90;;;;;;5083387;28;20497;-59
2022/11/06 03:50:20;;;;;;;18.17;6.63;;;3.30;99.90;;;;;;5087637;28;20439;-59
2022/11/06 03:52:53;;;;;;;15.47;4.90;;;3.30;99.90;;;;;;5085581;28;20431;-60
2022/11/06 03:55:25;;;;;;;22.10;6.70;;;3.20;99.90;;;;;;5087262;28;20451;-59
2022/11/06 03:57:55;;;;;;;16.33;5.20;;;3.20;99.90;;;;;;5064075;28;20435;-59
2022/11/06 04:00:21;;;;;;;19.90;5.70;;;3.20;99.90;;;;;;5083843;28;20439;-59
2022/11/06 04:03:06;;;;;;;16.30;5.23;;;3.20;99.90;;;;;;5083061;28;20420;-59
2022/11/06 04:05:38;;;;;;;10.23;5.13;;;3.20;99.90;;;;;;5087190;28;20189;-59
2022/11/06 04:14:00;;;;;;;16.10;5.20;;;3.20;99.90;;;;;;5083986;28;20829;-59
2022/11/06 04:16:32;;;;;;;40.13;5.47;;;3.20;99.90;;;;;;5081816;28;20525;-59
2022/11/06 04:18:57;;;;;;;32.07;5.53;;;3.20;99.90;;;;;;5079841;28;20415;-60
2022/11/06 04:21:47;;;;;;;14.37;4.90;;;3.20;99.90;;;;;;5081968;28;20959;-60
2022/11/06 04:27:51;;;;;;;17.80;5.27;;;3.10;99.90;;;;;;5082255;28;20430;-59
2022/11/06 04:30:17;;;;;;;67.67;7.10;;;3.10;99.90;;;;;;5078561;28;20456;-59
2022/11/06 04:32:46;;;;;;;32.97;6.30;;;3.10;99.90;;;;;;5079948;28;20467;-59
2022/11/06 04:35:32;;;;;;;28.47;6.00;;;3.10;99.90;;;;;;5083261;28;20430;-59
2022/11/06 04:38:01;;;;;;;18.87;5.10;;;3.10;99.90;;;;;;5106119;22;20727;-59
2022/11/06 04:40:34;;;;;;;21.03;5.20;;;3.10;99.90;;;;;;5080189;28;20436;-57
2022/11/06 04:43:12;;;;;;;12.87;4.40;;;3.10;99.90;;;;;;5081539;28;20484;-58
2022/11/06 04:45:42;;;;;;;20.83;4.60;;;3.10;99.90;;;;;;5083181;28;20960;-56
2022/11/06 04:48:09;;;;;;;17.23;4.20;;;3.10;99.90;;;;;;5089427;28;21008;-56
2022/11/06 04:50:47;;;;;;;16.13;4.70;;;3.10;99.90;;;;;;5095732;28;20431;-58
2022/11/06 04:53:14;;;;;;;17.20;5.00;;;3.10;99.90;;;;;;5104085;28;20430;-57
2022/11/06 04:56:08;;;;;;;40.10;5.07;;;3.10;99.90;;;;;;5078540;28;20528;-57
2022/11/06 04:58:34;;;;;;;12.63;4.03;;;3.10;99.90;;;;;;5078730;28;20443;-57
2022/11/06 05:01:00;;;;;;;21.10;5.53;;;3.10;99.90;;;;;;5102181;28;20835;-56
2022/11/06 05:03:25;;;;;;;15.17;4.37;;;3.10;99.90;;;;;;5098477;28;20192;-56
2022/11/06 05:05:51;;;;;;;29.67;5.07;;;3.10;99.90;;;;;;5099080;28;20173;-56
2022/11/06 05:08:19;;;;;;;54.10;5.17;;;3.10;99.90;;;;;;5101136;28;20275;-57
2022/11/06 05:10:46;;;;;;;23.47;5.43;;;3.10;99.90;;;;;;5082443;28;20216;-57
2022/11/06 05:13:12;;;;;;;8.90;4.20;;;3.10;99.90;;;;;;5099707;28;20434;-55
2022/11/06 05:15:38;;;;;;;48.40;5.53;;;3.10;99.90;;;;;;5102991;28;20460;-56
2022/11/06 05:18:04;;;;;;;15.33;4.40;;;3.00;99.90;;;;;;5094242;28;20455;-55
2022/11/06 05:20:30;;;;;;;11.50;4.43;;;3.10;99.90;;;;;;5100090;28;20513;-55
2022/11/06 05:23:02;;;;;;;23.13;5.20;;;3.00;99.90;;;;;;5101391;28;20419;-57
2022/11/06 05:25:36;;;;;;;18.13;5.00;;;3.00;99.90;;;;;;5107559;28;20437;-56
2022/11/06 05:28:04;;;;;;;28.90;5.10;;;3.00;99.90;;;;;;5112104;28;20506;-57
2022/11/06 05:30:30;;;;;;;22.93;5.10;;;3.00;99.90;;;;;;5114277;28;20427;-55
2022/11/06 05:32:56;;;;;;;7.10;4.30;;;3.10;99.90;;;;;;5112706;28;20439;-58
2022/11/06 05:35:21;;;;;;;11.20;4.13;;;3.10;99.90;;;;;;5098707;28;20444;-56
2022/11/06 05:37:47;;;;;;;14.37;4.53;;;3.10;99.90;;;;;;5099580;28;20263;-56
2022/11/06 05:40:13;;;;;;;21.37;8.80;;;3.10;99.90;;;;;;5105475;28;20268;-56
2022/11/06 05:42:39;;;;;;;26.73;5.80;;;3.10;99.90;;;;;;5105596;28;20587;-56
2022/11/06 05:45:06;;;;;;;48.10;5.90;;;3.00;99.90;;;;;;5086959;28;20532;-56
2022/11/06 05:47:32;;;;;;;33.63;4.97;;;3.10;99.90;;;;;;5106351;28;20534;-57
2022/11/06 05:49:58;;;;;;;41.57;5.90;;;3.10;99.90;;;;;;5097925;28;20928;-56
2022/11/06 05:52:23;;;;;;;47.80;5.47;;;3.10;99.90;;;;;;5104470;28;20461;-56
2022/11/06 05:54:49;;;;;;;45.00;6.00;;;3.10;99.90;;;;;;5105527;28;20329;-55
2022/11/06 05:57:14;;;;;;;36.47;5.60;;;3.00;99.90;;;;;;5098440;28;20669;-57
2022/11/06 05:59:40;;;;;;;25.90;4.60;;;3.00;99.90;;;;;;5084967;28;20602;-56
2022/11/06 06:02:06;;;;;;;182.60;9.33;;;3.00;99.90;;;;;;5103717;28;20188;-55
2022/11/06 06:04:32;;;;;;;20.77;4.57;;;3.00;99.90;;;;;;5097046;28;20804;-56
2022/11/06 06:06:57;;;;;;;18.13;4.10;;;3.00;99.90;;;;;;5088255;28;20256;-56
2022/11/06 06:09:23;;;;;;;25.90;5.87;;;3.00;99.90;;;;;;5104339;28;20197;-58
2022/11/06 06:11:53;;;;;;;23.13;4.67;;;3.00;99.90;;;;;;5107202;28;20215;-57
2022/11/06 06:14:19;;;;;;;19.90;4.60;;;3.00;99.90;;;;;;5098815;28;20176;-56
2022/11/06 06:16:46;;;;;;;5.07;3.60;;;3.00;99.90;;;;;;5103127;28;20530;-56
2022/11/06 06:19:12;;;;;;;53.80;6.73;;;3.00;99.90;;;;;;5103951;28;20991;-57
2022/11/06 06:21:38;;;;;;;15.57;4.57;;;3.00;99.90;;;;;;5105763;28;21420;-55
2022/11/06 06:24:04;;;;;;;100.50;7.23;;;3.00;99.90;;;;;;5103278;28;20526;-56
2022/11/06 06:26:30;;;;;;;49.10;6.93;;;3.00;99.90;;;;;;5101136;28;20185;-57
2022/11/06 06:28:56;;;;;;;36.53;5.80;;;3.00;99.90;;;;;;5095013;28;22663;-56
2022/11/06 06:31:22;;;;;;;69.40;6.77;;;2.90;99.90;;;;;;5099886;28;20193;-56
2022/11/06 06:33:48;;;;;;;47.73;4.50;;;2.90;99.90;;;;;;5105639;28;20174;-56
2022/11/06 06:36:13;;;;;;;27.57;5.80;;;2.90;99.90;;;;;;5100765;28;21277;-56
2022/11/06 06:38:39;;;;;;;28.57;5.00;;;2.90;99.90;;;;;;5107204;28;20279;-57
2022/11/06 06:41:08;;;;;;;13.80;4.80;;;2.90;99.90;;;;;;5100010;28;20218;-58
2022/11/06 06:43:34;;;;;;;33.03;5.07;;;2.90;99.90;;;;;;5104305;28;20173;-56
2022/11/06 06:46:02;;;;;;;18.20;4.90;;;3.00;99.90;;;;;;5102382;28;20428;-58
2022/11/06 06:48:28;;;;;;;29.97;5.03;;;3.00;99.90;;;;;;5086029;28;20454;-57
2022/11/06 06:51:00;;;;;;;17.33;4.60;;;3.00;99.90;;;;;;5123900;28;20597;-57
2022/11/06 06:53:26;;;;;;;8.87;4.13;;;3.00;99.90;;;;;;5126677;28;20427;-59
2022/11/06 06:55:52;;;;;;;12.00;4.03;;;3.00;99.90;;;;;;5123399;28;20494;-57
2022/11/06 06:58:19;;;;;;;21.17;4.93;;;3.00;99.90;;;;;;5103995;28;20459;-56
2022/11/06 07:00:45;;;;;;;27.37;4.20;;;3.00;99.90;;;;;;5114875;28;20184;-58
2022/11/06 07:03:11;;;;;;;23.20;5.40;;;3.00;99.90;;;;;;5111411;28;20439;-57
2022/11/06 07:05:37;;;;;;;33.00;5.93;;;3.00;99.90;;;;;;5112013;28;20714;-57
2022/11/06 07:08:02;;;;;;;17.57;4.50;;;3.00;99.90;;;;;;5116737;28;20193;-58
2022/11/06 07:10:30;;;;;;;42.83;6.30;;;3.00;99.90;;;;;;5122931;28;20427;-58
2022/11/06 07:13:00;;;;;;;16.43;4.90;;;3.00;99.90;;;;;;5117809;28;20191;-58
2022/11/06 07:15:25;;;;;;;17.70;4.30;;;3.00;99.90;;;;;;5112357;28;20446;-56
2022/11/06 07:17:51;;;;;;;15.50;5.57;;;3.00;99.90;;;;;;5098604;28;20466;-56
2022/11/06 07:20:16;;;;;;;27.57;5.37;;;3.10;99.90;;;;;;5102292;28;20182;-57
2022/11/06 07:22:42;;;;;;;48.87;5.80;;;3.10;99.90;;;;;;5101693;28;20251;-57
2022/11/06 07:25:08;;;;;;;52.67;6.10;;;3.10;99.90;;;;;;5097655;28;20181;-54
2022/11/06 07:27:33;;;;;;;21.33;4.90;;;3.10;99.90;;;;;;5096253;28;20318;-56
2022/11/06 07:29:59;;;;;;;20.13;5.10;;;3.20;99.90;;;;;;5105241;28;20645;-56
2022/11/06 07:32:25;;;;;;;23.53;5.87;;;3.20;99.90;;;;;;5097035;28;20356;-56
2022/11/06 07:34:51;;;;;;;23.27;4.30;;;3.20;99.90;;;;;;5099286;28;20488;-57
2022/11/06 07:37:16;;;;;;;9.17;4.50;;;3.20;99.90;;;;;;5099966;28;20530;-55
2022/11/06 07:39:42;;;;;;;15.83;5.13;;;3.30;99.90;;;;;;5100978;28;20295;-57
2022/11/06 07:42:08;;;;;;;43.67;5.80;;;3.30;99.90;;;;;;5100855;28;20204;-56
2022/11/06 07:44:34;;;;;;;10.27;4.77;;;3.40;99.90;;;;;;5100207;28;20445;-55
2022/11/06 07:46:59;;;;;;;10.03;4.40;;;3.30;99.90;;;;;;5101063;28;20193;-56
2022/11/06 07:49:25;;;;;;;16.40;5.10;;;3.40;99.90;;;;;;5102238;28;20462;-55
2022/11/06 07:51:51;;;;;;;14.07;5.30;;;3.40;99.90;;;;;;5099939;27;20261;-52
2022/11/06 07:54:17;;;;;;;8.83;4.53;;;3.40;99.90;;;;;;5098279;28;20211;-55
2022/11/06 07:56:42;;;;;;;8.17;4.67;;;3.50;99.90;;;;;;5097949;28;20959;-56
2022/11/06 07:59:08;;;;;;;6.77;3.90;;;3.50;99.90;;;;;;5087623;28;20197;-58
2022/11/06 08:01:33;;;;;;;10.60;5.40;;;3.60;99.90;;;;;;5084764;28;20369;-54
2022/11/06 08:03:59;;;;;;;46.50;5.67;;;3.70;99.90;;;;;;5098244;28;20643;-56
2022/11/06 08:06:25;;;;;;;12.57;5.23;;;3.70;99.90;;;;;;5102855;28;20183;-55
2022/11/06 08:08:50;;;;;;;9.47;5.13;;;3.70;99.90;;;;;;5098043;28;20327;-55
2022/11/06 08:11:16;;;;;;;28.83;5.23;;;3.70;99.90;;;;;;5096989;28;20228;-57
2022/11/06 08:13:42;;;;;;;9.80;4.60;;;3.70;99.90;;;;;;5097274;28;20818;-55
2022/11/06 08:16:11;;;;;;;7.07;4.60;;;3.70;99.90;;;;;;5103585;28;20177;-55
2022/11/06 08:18:37;;;;;;;7.50;4.67;;;3.70;99.90;;;;;;5098414;28;20463;-56
2022/11/06 08:21:04;;;;;;;13.03;5.67;;;3.80;99.90;;;;;;5101535;28;20440;-53
2022/11/06 08:23:30;;;;;;;11.10;5.30;;;3.80;99.90;;;;;;5096185;28;20824;-55
2022/11/06 08:25:58;;;;;;;8.07;5.50;;;3.90;99.90;;;;;;5097442;28;20443;-56
2022/11/06 08:28:25;;;;;;;9.20;5.60;;;3.90;99.90;;;;;;5102723;28;20212;-56
2022/11/06 08:30:51;;;;;;;12.00;5.83;;;4.00;99.90;;;;;;5099259;28;21056;-55
2022/11/06 08:33:18;;;;;;;9.03;5.80;;;4.10;99.90;;;;;;5088980;28;20423;-57
2022/11/06 08:35:44;;;;;;;7.30;5.20;;;4.20;99.90;;;;;;5102183;28;20996;-55
2022/11/06 08:38:10;;;;;;;8.47;5.33;;;4.20;99.90;;;;;;5097622;28;20560;-57
2022/11/06 08:40:37;;;;;;;7.83;5.07;;;4.30;99.90;;;;;;5093393;28;20430;-56
2022/11/06 08:43:08;;;;;;;8.00;5.53;;;4.30;99.90;;;;;;5098226;28;20402;-54
2022/11/06 08:45:38;;;;;;;9.03;6.10;;;4.40;99.90;;;;;;5096844;28;20415;-56
2022/11/06 08:48:04;;;;;;;9.60;6.57;;;4.30;99.90;;;;;;5098133;28;20487;-56
2022/11/06 08:50:31;;;;;;;10.83;5.83;;;4.40;99.90;;;;;;5097371;28;20422;-55
2022/11/06 08:52:59;;;;;;;8.27;5.80;;;4.50;99.90;;;;;;5093740;28;20841;-55
2022/11/06 08:55:25;;;;;;;6.00;4.83;;;4.60;99.90;;;;;;5102705;28;20503;-55
2022/11/06 08:57:54;;;;;;;8.83;6.43;;;4.60;99.90;;;;;;5098218;28;20752;-57
2022/11/06 09:00:19;;;;;;;8.60;5.93;;;4.60;99.90;;;;;;5100756;28;20502;-55
2022/11/06 09:02:45;;;;;;;7.20;4.80;;;4.70;99.90;;;;;;5110801;28;20535;-55
2022/11/06 09:05:10;;;;;;;7.93;5.70;;;4.70;99.90;;;;;;5106832;28;20188;-56
2022/11/06 09:07:36;;;;;;;8.63;6.07;;;4.70;99.90;;;;;;5100967;28;20200;-55
2022/11/06 09:10:02;;;;;;;8.20;5.60;;;4.80;99.90;;;;;;5100315;28;20176;-53
2022/11/06 09:12:27;;;;;;;9.10;5.60;;;4.80;99.90;;;;;;5082723;28;20193;-56
2022/11/06 09:14:53;;;;;;;8.30;5.63;;;4.90;99.90;;;;;;5085715;28;20955;-57
2022/11/06 09:17:22;;;;;;;9.10;5.83;;;5.00;99.90;;;;;;5104139;28;20211;-56
2022/11/06 09:19:49;;;;;;;7.33;5.63;;;5.10;99.90;;;;;;5095876;28;20303;-56
2022/11/06 09:22:15;;;;;;;7.93;5.50;;;5.20;99.90;;;;;;5100959;28;20431;-54
2022/11/06 09:24:40;;;;;;;11.63;6.33;;;5.30;99.90;;;;;;5098299;28;20442;-56
2022/11/06 09:27:06;;;;;;;9.23;5.80;;;5.30;99.90;;;;;;5107737;28;20188;-55
2022/11/06 09:29:31;;;;;;;8.27;5.87;;;5.30;99.90;;;;;;5100040;28;20262;-56
2022/11/06 09:31:57;;;;;;;7.60;5.40;;;5.40;99.90;;;;;;5100764;28;20224;-51
2022/11/06 09:34:23;;;;;;;7.30;4.93;;;5.40;99.90;;;;;;5101482;28;21850;-54
2022/11/06 09:36:49;;;;;;;8.60;5.33;;;5.60;99.90;;;;;;5086693;28;20180;-55
2022/11/06 09:39:14;;;;;;;8.00;5.90;;;5.60;99.90;;;;;;5098865;28;20205;-55
2022/11/06 09:41:54;;;;;;;6.60;5.10;;;5.70;99.90;;;;;;5108182;28;21025;-54
2022/11/06 09:44:50;;;;;;;8.73;5.87;;;5.80;99.90;;;;;;5106902;28;20511;-54
2022/11/06 09:47:21;;;;;;;6.60;5.37;;;5.80;99.90;;;;;;5097652;28;20491;-55
2022/11/06 09:49:51;;;;;;;7.07;5.37;;;5.70;99.90;;;;;;5109624;28;20450;-55
2022/11/06 09:52:43;;;;;;;7.90;5.50;;;5.70;99.90;;;;;;5113555;28;20955;-55
2022/11/06 09:55:15;;;;;;;8.40;5.43;;;5.60;99.90;;;;;;5102780;28;20460;-58
2022/11/06 09:57:47;;;;;;;6.57;4.93;;;5.70;99.90;;;;;;5107882;28;20442;-54
2022/11/06 10:00:15;;;;;;;7.47;5.60;;;5.70;99.90;;;;;;5102912;28;20462;-54
2022/11/06 10:02:47;;;;;;;7.00;5.63;;;5.80;99.90;;;;;;5099162;28;20432;-55
2022/11/06 10:05:25;;;;;;;7.53;5.40;;;5.80;99.90;;;;;;5106350;28;20430;-55
2022/11/06 10:07:57;;;;;;;7.53;5.40;;;5.90;99.90;;;;;;5107579;28;20544;-55
2022/11/06 10:11:02;;;;;;;6.20;5.40;;;6.00;99.90;;;;;;5103671;28;20432;-55
2022/11/06 10:13:33;;;;;;;7.23;5.87;;;6.10;99.90;;;;;;5105634;28;20462;-55
2022/11/06 10:16:09;;;;;;;7.57;5.70;;;6.20;99.90;;;;;;5111205;28;20443;-55
2022/11/06 10:19:03;;;;;;;6.63;5.17;;;6.40;99.90;;;;;;5097078;28;20447;-55
2022/11/06 10:21:47;;;;;;;9.07;6.00;;;6.40;99.90;;;;;;5104596;28;20472;-55
2022/11/06 10:24:29;;;;;;;7.60;5.93;;;6.40;99.90;;;;;;5097615;28;20522;-55
2022/11/06 10:26:56;;;;;;;7.67;5.63;;;6.50;99.90;;;;;;5078460;28;20522;-55
2022/11/06 10:30:02;;;;;;;6.63;5.17;;;6.60;99.90;;;;;;5081715;28;21030;-55
2022/11/06 10:32:39;;;;;;;8.13;5.57;;;6.80;99.90;;;;;;5099867;28;20501;-54
2022/11/06 10:35:27;;;;;;;7.77;5.67;;;6.90;99.90;;;;;;5101346;28;20893;-52
2022/11/06 10:38:32;;;;;;;6.87;5.07;;;7.10;99.90;;;;;;5088540;28;20546;-53
2022/11/06 10:40:59;;;;;;;6.47;4.63;;;7.30;99.90;;;;;;5102317;22;20499;-58
2022/11/06 10:43:24;;;;;;;5.73;5.00;;;7.40;99.90;;;;;;5084155;28;20447;-56
2022/11/06 10:45:57;;;;;;;7.27;5.40;;;7.60;99.90;;;;;;5081515;28;20450;-53
2022/11/06 10:48:25;;;;;;;6.17;4.97;;;7.70;99.90;;;;;;5084314;28;20206;-56
2022/11/06 10:51:01;;;;;;;5.90;4.77;;;7.90;99.90;;;;;;5078505;28;20472;-57
2022/11/06 10:53:59;;;;;;;7.47;4.90;;;8.10;99.90;;;;;;5097837;28;20423;-54
2022/11/06 10:57:15;;;;;;;5.40;4.57;;;8.20;99.90;;;;;;5056417;28;20431;-59
2022/11/06 10:59:41;;;;;;;5.03;4.20;;;8.20;99.90;;;;;;5037334;28;20438;-55
2022/11/06 11:02:34;;;;;;;4.50;4.10;;;8.30;99.90;;;;;;5021671;28;21201;-56
2022/11/06 11:05:00;;;;;;;4.67;4.07;;;8.40;99.90;;;;;;5076393;27;20601;-57
2022/11/06 11:07:31;;;;;;;6.47;4.50;;;8.50;99.90;;;;;;5102375;28;20956;-58
2022/11/06 11:09:56;;;;;;;5.50;4.30;;;8.60;99.90;;;;;;5092162;27;20185;-55
2022/11/06 11:12:29;;;;;;;4.70;4.20;;;8.60;99.90;;;;;;5092499;27;20474;-58
2022/11/06 11:15:18;;;;;;;4.10;3.70;;;8.60;99.90;;;;;;5097857;28;20185;-54
2022/11/06 11:18:16;;;;;;;4.97;4.00;;;8.70;99.90;;;;;;5101968;27;20438;-55
2022/11/06 11:20:47;;;;;;;5.17;3.77;;;8.90;99.90;;;;;;5099553;28;20451;-59
2022/11/06 11:23:21;;;;;;;4.20;3.80;;;9.10;99.90;;;;;;5101636;28;20435;-56
2022/11/06 11:25:49;;;;;;;5.00;4.03;;;9.30;99.90;;;;;;5099796;28;20515;-59
2022/11/06 11:28:30;;;;;;;5.70;4.67;;;9.50;99.90;;;;;;5098490;28;20803;-57
2022/11/06 11:31:10;;;;;;;5.73;4.43;;;9.70;99.90;;;;;;5097248;27;20457;-59
2022/11/06 11:33:37;;;;;;;5.53;4.60;;;9.80;99.90;;;;;;5080693;28;20476;-57
2022/11/06 11:36:05;;;;;;;5.43;4.50;;;10.00;99.90;;;;;;5098143;27;20820;-55
2022/11/06 11:38:34;;;;;;;5.70;5.20;;;10.20;99.90;;;;;;5098751;28;20597;-59
2022/11/06 11:41:06;;;;;;;11.20;5.10;;;10.50;99.90;;;;;;5098713;28;20465;-59
2022/11/06 11:43:32;;;;;;;5.67;4.40;;;10.80;99.90;;;;;;5098535;28;20461;-60
2022/11/06 11:46:08;;;;;;;5.27;4.50;;;11.00;99.90;;;;;;5099096;28;20932;-58
2022/11/06 11:48:50;;;;;;;5.97;4.40;;;11.00;99.90;;;;;;5096465;27;20178;-57
2022/11/06 11:51:34;;;;;;;7.03;3.97;;;11.10;98.90;;;;;;5096735;28;20462;-56
2022/11/06 11:54:12;;;;;;;5.83;4.03;;;11.30;95.50;;;;;;5070156;28;20445;-60
2022/11/06 11:56:50;;;;;;;4.30;3.90;;;11.40;94.10;;;;;;5090087;28;21278;-60
2022/11/06 11:59:20;;;;;;;4.70;3.93;;;11.20;97.00;;;;;;5095328;28;20423;-60
2022/11/06 12:01:46;;;;;;;4.13;3.73;;;11.20;98.50;;;;;;5091820;28;20539;-61
2022/11/06 12:04:27;;;;;;;5.00;4.03;;;11.30;97.90;;;;;;5101862;28;20825;-60
2022/11/06 12:07:02;;;;;;;5.27;4.10;;;11.50;98.20;;;;;;5101134;28;20434;-60
2022/11/06 12:09:31;;;;;;;4.63;3.47;;;11.80;98.40;;;;;;5095017;28;21396;-60
2022/11/06 12:11:59;;;;;;;4.83;2.93;;;12.00;93.10;;;;;;5098602;28;20808;-61
2022/11/06 12:14:26;;;;;;;2.40;2.20;;;12.30;90.60;;;;;;5100286;28;20423;-60
2022/11/06 12:17:03;;;;;;;2.40;2.20;;;12.40;77.60;;;;;;5095431;28;20437;-58
2022/11/06 12:19:32;;;;;;;2.97;2.70;;;12.60;71.20;;;;;;5095465;28;20421;-59
2022/11/06 12:22:04;;;;;;;3.77;2.40;;;12.70;67.80;;;;;;5098283;28;21283;-61
2022/11/06 12:24:52;;;;;;;2.50;2.13;;;12.60;67.20;;;;;;5083075;28;20427;-62
2022/11/06 12:27:24;;;;;;;4.33;2.37;;;12.30;65.00;;;;;;5100674;28;20472;-60
2022/11/06 12:29:56;;;;;;;4.10;3.70;;;12.00;65.40;;;;;;5095665;28;22180;-64
2022/11/06 12:32:22;;;;;;;3.07;2.87;;;11.70;67.70;;;;;;5096567;28;20451;-63
2022/11/06 12:34:58;;;;;;;3.60;2.87;;;11.50;70.30;;;;;;5090124;28;21805;-63
2022/11/06 12:37:53;;;;;;;4.00;2.70;;;11.30;74.40;;;;;;5087909;28;20423;-63
2022/11/06 12:40:19;;;;;;;3.03;2.70;;;11.20;74.80;;;;;;5083598;28;20558;-63
2022/11/06 12:43:13;;;;;;;5.30;3.30;;;11.10;77.70;;;;;;5090863;28;20430;-63
2022/11/06 12:45:53;;;;;;;3.30;3.00;;;11.00;75.40;;;;;;5089020;28;20519;-63
2022/11/06 12:48:37;;;;;;;3.67;3.27;;;10.80;75.20;;;;;;5098841;28;20538;-62
2022/11/06 12:51:21;;;;;;;5.00;3.60;;;10.60;78.10;;;;;;5094626;28;20985;-60
2022/11/06 12:54:18;;;;;;;4.87;4.37;;;10.50;83.10;;;;;;5094558;28;20439;-60
2022/11/06 12:56:56;;;;;;;4.60;3.60;;;10.40;84.70;;;;;;5096439;28;20530;-58
2022/11/06 12:59:42;;;;;;;4.93;3.97;;;10.40;89.70;;;;;;5101178;28;20434;-61
2022/11/06 13:02:16;;;;;;;4.93;3.70;;;10.30;86.10;;;;;;5093529;28;20495;-61
2022/11/06 13:05:07;;;;;;;8.20;4.43;;;10.30;88.10;;;;;;5094606;28;20799;-61
2022/11/06 13:07:44;;;;;;;6.10;4.40;;;10.30;91.10;;;;;;5098331;28;20437;-59
2022/11/06 13:10:34;;;;;;;4.30;3.90;;;10.30;90.50;;;;;;5076843;28;20442;-59
2022/11/06 13:13:07;;;;;;;4.90;4.17;;;10.20;90.70;;;;;;5082616;28;20454;-60
2022/11/06 13:15:43;;;;;;;8.20;4.13;;;10.20;90.90;;;;;;5103392;28;20527;-60
2022/11/06 13:18:17;;;;;;;6.17;5.00;;;10.00;92.00;;;;;;5080116;28;20991;-59
2022/11/06 13:21:12;;;;;;;8.90;6.77;;;10.00;92.60;;;;;;5100857;28;20450;-60
2022/11/06 13:23:46;;;;;;;7.73;6.40;;;9.90;94.90;;;;;;5090940;28;20438;-60